createdAt,value
2019-05-01T00:00:22.172Z,80.40
2019-05-01T00:03:01.464Z,80.21
2019-05-01T00:05:31.786Z,81.64
2019-05-01T00:08:00.277Z,81.25
2019-05-01T00:10:30.142Z,80.75
2019-05-01T00:12:58.597Z,80.88
2019-05-01T00:15:28.677Z,81.09
2019-05-01T00:17:57.081Z,81.64
2019-05-01T00:20:25.563Z,82.66
2019-05-01T00:22:53.950Z,82.88
2019-05-01T00:25:22.384Z,81.64
2019-05-01T00:27:50.955Z,81.49
2019-05-01T00:30:29.632Z,82.54
2019-05-01T00:32:51.125Z,82.28
2019-05-01T00:35:19.529Z,82.59
2019-05-01T00:37:47.948Z,82.83
2019-05-01T00:40:16.424Z,82.83
2019-05-01T00:42:44.802Z,82.94
2019-05-01T00:45:13.438Z,82.85
2019-05-01T00:47:41.878Z,82.68
2019-05-01T00:50:10.628Z,83.65
2019-05-01T00:52:39.027Z,83.53
2019-05-01T00:55:15.165Z,83.11
2019-05-01T00:57:45.181Z,82.71
2019-05-01T01:00:27.683Z,83.12
2019-05-01T01:02:56.488Z,83.27
2019-05-01T01:05:25.030Z,83.75
2019-05-01T01:07:53.453Z,84.34
2019-05-01T01:10:21.850Z,84.16
2019-05-01T01:12:52.293Z,84.55
2019-05-01T01:15:20.406Z,84.57
2019-05-01T01:17:48.885Z,84.47
2019-05-01T01:20:17.523Z,84.79
2019-05-01T01:22:45.986Z,84.73
2019-05-01T01:25:14.754Z,84.26
2019-05-01T01:27:43.365Z,84.83
2019-05-01T01:30:12.223Z,85.08
2019-05-01T01:32:40.687Z,85.84
2019-05-01T01:35:09.326Z,85.93
2019-05-01T01:37:37.741Z,86.75
2019-05-01T01:40:07.103Z,86.31
2019-05-01T01:42:36.237Z,85.80
2019-05-01T01:45:08.416Z,86.28
2019-05-01T01:47:39.125Z,85.95
2019-05-01T01:50:07.961Z,86.37
2019-05-01T01:52:36.416Z,86.45
2019-05-01T01:55:05.936Z,86.42
2019-05-01T01:57:34.357Z,86.65
2019-05-01T02:00:04.440Z,86.85
2019-05-01T02:02:40.052Z,86.75
2019-05-01T02:05:11.162Z,86.81
2019-05-01T02:07:39.591Z,87.25
2019-05-01T02:10:08.855Z,87.66
2019-05-01T02:12:38.870Z,87.66
2019-05-01T02:15:07.783Z,87.73
2019-05-01T02:17:36.293Z,87.14
2019-05-01T02:20:07.153Z,87.39
2019-05-01T02:22:35.633Z,87.71
2019-05-01T02:25:06.290Z,87.48
2019-05-01T02:27:36.506Z,87.70
2019-05-01T02:30:08.147Z,87.95
2019-05-01T02:32:37.888Z,86.90
2019-05-01T02:35:08.063Z,86.90
2019-05-01T02:37:38.594Z,87.06
2019-05-01T02:40:21.789Z,87.75
2019-05-01T02:42:51.455Z,87.37
2019-05-01T02:45:22.962Z,87.60
2019-05-01T02:47:51.607Z,88.27
2019-05-01T02:50:23.384Z,87.65
2019-05-01T02:52:52.354Z,88.73
2019-05-01T02:55:22.722Z,88.65
2019-05-01T02:57:52.193Z,88.47
2019-05-01T03:00:20.616Z,88.49
2019-05-01T03:02:49.707Z,88.09
2019-05-01T03:05:18.244Z,88.16
2019-05-01T03:07:46.842Z,89.30
2019-05-01T03:10:16.362Z,89.47
2019-05-01T03:12:47.518Z,89.74
2019-05-01T03:15:18.547Z,89.76
2019-05-01T03:17:50.033Z,89.14
2019-05-01T03:20:20.159Z,89.12
2019-05-01T03:22:50.285Z,88.66
2019-05-01T03:25:19.406Z,89.25
2019-05-01T03:27:48.589Z,90.06
2019-05-01T03:30:17.168Z,90.14
2019-05-01T03:32:45.582Z,90.37
2019-05-01T03:35:14.105Z,90.46
2019-05-01T03:37:42.785Z,90.99
2019-05-01T03:40:14.283Z,91.25
2019-05-01T03:42:43.032Z,91.06
2019-05-01T03:45:11.454Z,91.53
2019-05-01T03:47:41.845Z,92.84
2019-05-01T03:50:10.378Z,94.17
2019-05-01T03:52:38.775Z,94.47
2019-05-01T03:55:07.635Z,94.35
2019-05-01T03:57:36.378Z,93.69
2019-05-01T04:00:08.657Z,94.72
2019-05-01T04:02:39.290Z,94.65
2019-05-01T04:05:07.920Z,94.78
2019-05-01T04:07:37.440Z,95.13
2019-05-01T04:10:07.826Z,95.53
2019-05-01T04:12:37.078Z,95.35
2019-05-01T04:15:06.844Z,95.22
2019-05-01T04:17:39.908Z,95.64
2019-05-01T04:20:08.579Z,96.07
2019-05-01T04:22:37.345Z,96.25
2019-05-01T04:25:08.088Z,96.30
2019-05-01T04:27:38.225Z,96.57
2019-05-01T04:30:14.402Z,96.89
2019-05-01T04:32:52.501Z,96.88
2019-05-01T04:35:23.427Z,97.49
2019-05-01T04:37:52.705Z,97.92
2019-05-01T04:40:21.968Z,98.12
2019-05-01T04:42:50.599Z,98.30
2019-05-01T04:45:21.029Z,98.37
2019-05-01T04:47:49.903Z,98.39
2019-05-01T04:50:18.630Z,98.55
2019-05-01T04:52:47.140Z,98.70
2019-05-01T04:55:16.315Z,98.76
2019-05-01T04:57:45.507Z,98.80
2019-05-01T05:00:14.421Z,98.79
2019-05-01T05:03:05.611Z,98.84
2019-05-01T05:05:34.624Z,98.90
2019-05-01T05:08:03.502Z,98.95
2019-05-01T05:10:32.385Z,98.86
2019-05-01T05:13:08.499Z,98.72
2019-05-01T05:15:47.793Z,98.57
2019-05-01T05:18:16.785Z,98.53
2019-05-01T05:20:45.462Z,98.56
2019-05-01T05:23:14.123Z,98.63
2019-05-01T05:25:42.895Z,98.82
2019-05-01T05:28:12.411Z,98.95
2019-05-01T05:30:44.083Z,98.85
2019-05-01T05:33:18.540Z,98.82
2019-05-01T05:35:46.165Z,98.81
2019-05-01T05:38:18.068Z,98.85
2019-05-01T05:40:46.714Z,98.98
2019-05-01T05:43:15.251Z,99.13
2019-05-01T05:45:44.125Z,99.12
2019-05-01T05:48:12.808Z,99.02
2019-05-01T05:50:49.061Z,99.05
2019-05-01T05:53:25.277Z,99.07
2019-05-01T05:55:57.926Z,98.95
2019-05-01T05:58:39.947Z,98.55
2019-05-01T06:01:21.517Z,98.37
2019-05-01T06:04:11.020Z,98.59
2019-05-01T06:06:46.875Z,98.44
2019-05-01T06:09:18.557Z,98.65
2019-05-01T06:12:04.861Z,98.58
2019-05-01T06:14:49.175Z,98.77
2019-05-01T06:17:28.457Z,98.75
2019-05-01T06:20:03.144Z,98.83
2019-05-01T06:25:23.094Z,98.53
2019-05-01T06:27:49.329Z,98.02
2019-05-01T06:30:16.589Z,97.82
2019-05-01T06:32:45.644Z,97.75
2019-05-01T06:35:14.283Z,97.56
2019-05-01T06:38:13.749Z,97.70
2019-05-01T06:40:45.382Z,97.75
2019-05-01T06:43:32.719Z,97.93
2019-05-01T06:46:11.299Z,98.15
2019-05-01T06:48:43.865Z,98.00
2019-05-01T06:51:30.323Z,97.90
2019-05-01T06:53:58.887Z,97.90
2019-05-01T06:56:27.361Z,97.86
2019-05-01T06:58:56.459Z,97.99
2019-05-01T07:01:25.101Z,98.54
2019-05-01T07:04:03.670Z,98.02
2019-05-01T07:06:26.151Z,98.07
2019-05-01T07:08:54.709Z,98.13
2019-05-01T07:11:23.263Z,96.98
2019-05-01T07:13:51.776Z,96.91
2019-05-01T07:16:21.241Z,96.18
2019-05-01T07:18:51.008Z,96.88
2019-05-01T07:21:22.811Z,96.44
2019-05-01T07:23:52.307Z,97.04
2019-05-01T07:26:22.802Z,97.51
2019-05-01T07:28:52.388Z,96.93
2019-05-01T07:31:20.932Z,96.16
2019-05-01T07:33:51.260Z,96.30
2019-05-01T07:36:19.889Z,96.46
2019-05-01T07:38:48.751Z,94.30
2019-05-01T07:41:17.243Z,94.26
2019-05-01T07:44:04.978Z,93.65
2019-05-01T07:46:37.982Z,95.06
2019-05-01T07:49:06.686Z,94.15
2019-05-01T07:51:37.794Z,95.03
2019-05-01T07:54:08.855Z,94.10
2019-05-01T07:56:35.814Z,93.14
2019-05-01T07:59:04.783Z,93.61
2019-05-01T08:01:34.961Z,93.09
2019-05-01T08:04:03.415Z,93.09
2019-05-01T08:06:31.834Z,91.98
2019-05-01T08:09:00.287Z,89.52
2019-05-01T08:11:28.785Z,86.32
2019-05-01T08:14:07.117Z,89.54
2019-05-01T08:16:27.688Z,87.88
2019-05-01T08:19:06.305Z,85.73
2019-05-01T08:21:38.848Z,84.41
2019-05-01T08:24:08.792Z,80.81
2019-05-01T08:26:39.573Z,81.18
2019-05-01T08:29:25.377Z,78.71
2019-05-01T08:32:04.666Z,78.73
2019-05-01T08:34:48.525Z,78.79
2019-05-01T08:37:07.923Z,78.53
2019-05-01T08:39:39.609Z,79.25
2019-05-01T08:42:06.966Z,77.25
2019-05-01T08:44:53.707Z,78.17
2019-05-01T08:47:25.813Z,79.08
2019-05-01T08:49:55.679Z,78.64
2019-05-01T08:52:24.192Z,79.63
2019-05-01T08:54:54.821Z,80.80
2019-05-01T08:57:22.931Z,79.87
2019-05-01T08:59:51.354Z,79.23
2019-05-01T09:02:19.836Z,77.77
2019-05-01T09:04:48.283Z,76.86
2019-05-01T09:07:19.166Z,76.90
2019-05-01T09:09:47.428Z,76.36
2019-05-01T09:12:15.930Z,75.74
2019-05-01T09:14:44.426Z,76.94
2019-05-01T09:17:12.877Z,75.91
2019-05-01T09:19:41.371Z,74.79
2019-05-01T09:22:09.851Z,75.30
2019-05-01T09:24:38.315Z,73.80
2019-05-01T09:27:18.818Z,75.56
2019-05-01T09:29:52.862Z,73.86
2019-05-01T09:32:21.703Z,74.68
2019-05-01T09:34:50.147Z,74.10
2019-05-01T09:37:18.644Z,74.63
2019-05-01T09:39:47.567Z,74.43
2019-05-01T09:42:22.838Z,73.48
2019-05-01T09:44:46.239Z,72.56
2019-05-01T09:47:14.721Z,74.73
2019-05-01T09:49:43.277Z,71.33
2019-05-01T09:52:13.398Z,69.13
2019-05-01T09:54:46.763Z,67.75
2019-05-01T09:57:16.231Z,65.96
2019-05-01T09:59:44.700Z,66.26
2019-05-01T10:02:14.253Z,64.36
2019-05-01T10:04:43.269Z,64.93
2019-05-01T10:07:11.952Z,65.67
2019-05-01T10:09:40.531Z,64.65
2019-05-01T10:12:11.531Z,65.88
2019-05-01T10:14:39.142Z,65.21
2019-05-01T10:17:07.715Z,62.52
2019-05-01T10:19:36.150Z,63.23
2019-05-01T10:22:04.628Z,62.65
2019-05-01T10:24:37.507Z,61.03
2019-05-01T10:27:04.837Z,60.12
2019-05-01T10:29:37.610Z,58.20
2019-05-01T10:32:07.789Z,60.97
2019-05-01T10:34:56.975Z,59.51
2019-05-01T10:37:28.297Z,60.89
2019-05-01T10:39:55.678Z,60.95
2019-05-01T10:42:24.117Z,60.02
2019-05-01T10:44:52.523Z,57.53
2019-05-01T10:47:20.984Z,57.92
2019-05-01T10:49:49.392Z,57.79
2019-05-01T10:52:17.835Z,59.31
2019-05-01T10:54:46.623Z,57.23
2019-05-01T10:57:15.222Z,56.79
2019-05-01T10:59:43.756Z,58.52
2019-05-01T11:02:13.799Z,55.25
2019-05-01T11:04:42.211Z,54.70
2019-05-01T11:07:10.718Z,53.70
2019-05-01T11:09:39.162Z,52.44
2019-05-01T11:12:07.688Z,51.42
2019-05-01T11:14:36.287Z,51.62
2019-05-01T11:17:04.689Z,52.81
2019-05-01T11:19:33.152Z,52.88
2019-05-01T11:22:01.733Z,52.68
2019-05-01T11:24:30.238Z,50.48
2019-05-01T11:26:58.698Z,50.94
2019-05-01T11:29:27.119Z,52.16
2019-05-01T11:32:05.651Z,50.45
2019-05-01T11:34:53.903Z,49.53
2019-05-01T11:37:26.436Z,48.54
2019-05-01T11:39:56.480Z,50.33
2019-05-01T11:42:24.912Z,50.49
2019-05-01T11:44:53.362Z,48.98
2019-05-01T11:47:21.869Z,49.87
2019-05-01T11:49:50.324Z,49.49
2019-05-01T11:52:18.844Z,46.28
2019-05-01T11:54:47.271Z,47.08
2019-05-01T11:57:15.772Z,48.51
2019-05-01T11:59:44.257Z,47.95
2019-05-01T12:02:12.652Z,46.70
2019-05-01T12:04:41.398Z,47.27
2019-05-01T12:07:09.938Z,44.95
2019-05-01T12:09:38.328Z,45.94
2019-05-01T12:12:08.379Z,46.03
2019-05-01T12:14:36.886Z,44.57
2019-05-01T12:17:09.906Z,45.41
2019-05-01T12:19:38.353Z,43.69
2019-05-01T12:22:06.783Z,44.11
2019-05-01T12:24:35.236Z,44.51
2019-05-01T12:27:03.681Z,42.52
2019-05-01T12:29:32.136Z,45.02
2019-05-01T12:32:00.565Z,44.10
2019-05-01T12:34:29.054Z,45.66
2019-05-01T12:37:17.814Z,43.66
2019-05-01T12:39:46.541Z,46.05
2019-05-01T12:42:19.233Z,46.39
2019-05-01T12:44:47.689Z,43.72
2019-05-01T12:47:20.168Z,43.50
2019-05-01T12:49:50.269Z,43.16
2019-05-01T12:52:36.333Z,45.24
2019-05-01T12:55:08.143Z,46.26
2019-05-01T12:57:36.936Z,46.01
2019-05-01T13:00:09.380Z,44.31
2019-05-01T13:02:37.811Z,44.98
2019-05-01T13:05:07.636Z,44.53
2019-05-01T13:07:36.387Z,42.01
2019-05-01T13:10:06.259Z,43.34
2019-05-01T13:12:34.708Z,42.87
2019-05-01T13:15:03.430Z,42.35
2019-05-01T13:17:31.881Z,42.93
2019-05-01T13:20:00.325Z,42.67
2019-05-01T13:22:28.742Z,43.57
2019-05-01T13:24:57.128Z,42.41
2019-05-01T13:27:39.254Z,42.52
2019-05-01T13:30:12.413Z,42.32
2019-05-01T13:32:48.387Z,42.74
2019-05-01T13:35:16.959Z,43.05
2019-05-01T13:37:45.377Z,42.82
2019-05-01T13:40:15.106Z,45.72
2019-05-01T13:42:43.762Z,44.18
2019-05-01T13:45:12.768Z,42.93
2019-05-01T13:47:41.280Z,43.39
2019-05-01T13:50:10.259Z,43.39
2019-05-01T13:52:38.688Z,44.46
2019-05-01T13:55:07.189Z,44.58
2019-05-01T13:57:35.656Z,47.47
2019-05-01T14:00:07.278Z,47.80
2019-05-01T14:02:35.749Z,45.29
2019-05-01T14:05:05.445Z,43.91
2019-05-01T14:07:33.823Z,45.06
2019-05-01T14:10:02.271Z,44.89
2019-05-01T14:12:30.773Z,46.66
2019-05-01T14:14:59.214Z,44.35
2019-05-01T14:17:27.653Z,44.10
2019-05-01T14:19:57.890Z,46.48
2019-05-01T14:22:31.073Z,46.07
2019-05-01T14:25:07.225Z,46.89
2019-05-01T14:27:35.717Z,43.93
2019-05-01T14:30:07.168Z,44.16
2019-05-01T14:32:35.602Z,45.78
2019-05-01T14:35:07.047Z,47.12
2019-05-01T14:37:35.502Z,46.23
2019-05-01T14:40:08.593Z,43.98
2019-05-01T14:42:37.019Z,47.02
2019-05-01T14:45:08.631Z,45.85
2019-05-01T14:47:37.063Z,45.80
2019-05-01T14:50:07.018Z,44.27
2019-05-01T14:52:35.516Z,44.62
2019-05-01T14:55:05.865Z,44.28
2019-05-01T14:57:34.287Z,45.52
2019-05-01T15:00:02.851Z,45.71
2019-05-01T15:02:31.292Z,46.30
2019-05-01T15:04:59.752Z,43.67
2019-05-01T15:07:28.197Z,44.71
2019-05-01T15:09:56.912Z,46.72
2019-05-01T15:12:25.430Z,44.90
2019-05-01T15:14:55.540Z,46.06
2019-05-01T15:17:28.240Z,46.21
2019-05-01T15:20:04.078Z,45.86
2019-05-01T15:22:32.493Z,44.75
2019-05-01T15:25:01.633Z,45.99
2019-05-01T15:27:30.207Z,47.54
2019-05-01T15:29:59.153Z,45.38
2019-05-01T15:32:27.722Z,46.05
2019-05-01T15:34:56.772Z,46.07
2019-05-01T15:37:25.211Z,46.12
2019-05-01T15:39:58.669Z,46.94
2019-05-01T15:42:37.479Z,46.69
2019-05-01T15:45:06.904Z,46.32
2019-05-01T15:47:35.327Z,46.13
2019-05-01T15:50:07.923Z,47.28
2019-05-01T15:52:36.554Z,48.13
2019-05-01T15:55:07.764Z,49.37
2019-05-01T15:57:36.580Z,48.06
2019-05-01T16:00:08.419Z,46.80
2019-05-01T16:02:37.098Z,47.76
2019-05-01T16:05:07.244Z,47.65
2019-05-01T16:07:35.692Z,47.20
2019-05-01T16:10:10.502Z,47.80
2019-05-01T16:12:40.583Z,49.32
2019-05-01T16:15:11.103Z,49.80
2019-05-01T16:17:39.791Z,50.34
2019-05-01T16:20:08.663Z,50.56
2019-05-01T16:22:37.979Z,49.95
2019-05-01T16:25:07.387Z,49.89
2019-05-01T16:27:35.922Z,50.51
2019-05-01T16:30:05.829Z,51.39
2019-05-01T16:32:34.485Z,51.42
2019-05-01T16:35:03.096Z,50.77
2019-05-01T16:37:31.524Z,51.10
2019-05-01T16:40:04.287Z,50.76
2019-05-01T16:42:34.250Z,50.47
2019-05-01T16:45:03.463Z,49.52
2019-05-01T16:47:32.088Z,48.82
2019-05-01T16:50:00.577Z,49.90
2019-05-01T16:52:34.097Z,49.66
2019-05-01T16:55:02.584Z,49.35
2019-05-01T16:57:30.995Z,50.40
2019-05-01T16:59:59.608Z,49.11
2019-05-01T17:02:38.792Z,49.53
2019-05-01T17:05:25.341Z,49.85
2019-05-01T17:08:00.961Z,50.50
2019-05-01T17:10:33.730Z,51.31
2019-05-01T17:13:02.539Z,51.57
2019-05-01T17:15:32.721Z,51.88
2019-05-01T17:18:01.452Z,53.36
2019-05-01T17:20:30.132Z,53.15
2019-05-01T17:22:58.522Z,53.64
2019-05-01T17:25:29.531Z,53.68
2019-05-01T17:27:57.836Z,54.51
2019-05-01T17:30:48.349Z,55.10
2019-05-01T17:33:20.668Z,55.83
2019-05-01T17:35:47.434Z,56.14
2019-05-01T17:38:16.049Z,56.63
2019-05-01T17:40:47.305Z,57.16
2019-05-01T17:43:15.502Z,58.34
2019-05-01T17:45:44.218Z,58.69
2019-05-01T17:48:12.670Z,58.73
2019-05-01T17:50:41.084Z,59.51
2019-05-01T17:53:09.804Z,60.61
2019-05-01T17:55:38.461Z,60.34
2019-05-01T17:58:06.924Z,60.16
2019-05-01T18:00:37.639Z,60.02
2019-05-01T18:03:24.273Z,60.67
2019-05-01T18:06:01.492Z,60.64
2019-05-01T18:08:28.502Z,60.39
2019-05-01T18:10:57.076Z,60.75
2019-05-01T18:13:25.631Z,61.19
2019-05-01T18:15:54.201Z,62.46
2019-05-01T18:18:22.941Z,63.44
2019-05-01T18:20:51.711Z,63.82
2019-05-01T18:23:21.847Z,64.86
2019-05-01T18:25:57.984Z,64.60
2019-05-01T18:28:31.725Z,64.63
2019-05-01T18:31:01.595Z,65.57
2019-05-01T18:33:30.406Z,65.66
2019-05-01T18:35:58.890Z,66.30
2019-05-01T18:38:29.135Z,66.38
2019-05-01T18:41:01.872Z,66.86
2019-05-01T18:43:32.160Z,66.90
2019-05-01T18:46:01.612Z,67.76
2019-05-01T18:48:30.188Z,67.82
2019-05-01T18:50:58.892Z,68.33
2019-05-01T18:53:27.408Z,68.23
2019-05-01T18:55:55.912Z,68.76
2019-05-01T18:58:24.736Z,69.28
2019-05-01T19:00:53.140Z,69.70
2019-05-01T19:03:22.514Z,70.37
2019-05-01T19:05:51.274Z,70.37
2019-05-01T19:08:19.681Z,71.00
2019-05-01T19:10:48.299Z,71.07
2019-05-01T19:13:17.164Z,71.36
2019-05-01T19:15:45.719Z,71.17
2019-05-01T19:18:14.275Z,71.43
2019-05-01T19:20:42.762Z,71.92
2019-05-01T19:23:11.300Z,72.23
2019-05-01T19:25:39.815Z,72.66
2019-05-01T19:28:09.425Z,73.21
2019-05-01T19:30:38.012Z,72.81
2019-05-01T19:33:06.525Z,72.96
2019-05-01T19:35:35.212Z,73.00
2019-05-01T19:38:03.742Z,73.68
2019-05-01T19:40:32.793Z,73.92
2019-05-01T19:43:01.365Z,73.79
2019-05-01T19:45:29.908Z,73.94
2019-05-01T19:47:58.560Z,74.36
2019-05-01T19:50:26.975Z,73.98
2019-05-01T19:52:55.540Z,74.21
2019-05-01T19:55:24.217Z,74.44
2019-05-01T19:57:52.831Z,75.43
2019-05-01T20:00:52.783Z,75.74
2019-05-01T20:03:21.859Z,75.69
2019-05-01T20:05:50.675Z,75.68
2019-05-01T20:08:19.322Z,76.12
2019-05-01T20:10:48.586Z,76.11
2019-05-01T20:13:17.972Z,75.99
2019-05-01T20:15:46.474Z,76.23
2019-05-01T20:18:14.996Z,76.13
2019-05-01T20:20:43.517Z,76.47
2019-05-01T20:23:11.910Z,76.63
2019-05-01T20:25:40.371Z,76.93
2019-05-01T20:28:08.810Z,76.84
2019-05-01T20:30:37.360Z,76.95
2019-05-01T20:33:08.176Z,77.05
2019-05-01T20:35:36.369Z,77.47
2019-05-01T20:38:05.144Z,77.42
2019-05-01T20:40:33.634Z,77.58
2019-05-01T20:43:05.782Z,77.12
2019-05-01T20:45:32.319Z,77.81
2019-05-01T20:48:00.723Z,78.40
2019-05-01T20:50:29.283Z,78.82
2019-05-01T20:52:57.759Z,79.29
2019-05-01T20:55:26.236Z,79.67
2019-05-01T20:57:56.369Z,79.52
2019-05-01T21:00:26.375Z,79.28
2019-05-01T21:02:54.796Z,79.18
2019-05-01T21:05:24.837Z,78.99
2019-05-01T21:08:06.898Z,79.87
2019-05-01T21:10:50.490Z,80.47
2019-05-01T21:13:17.769Z,80.82
2019-05-01T21:15:47.386Z,80.98
2019-05-01T21:18:15.995Z,80.91
2019-05-01T21:20:44.435Z,80.74
2019-05-01T21:23:14.351Z,81.25
2019-05-01T21:25:43.878Z,81.10
2019-05-01T21:28:14.172Z,81.28
2019-05-01T21:30:45.771Z,81.56
2019-05-01T21:33:13.891Z,82.05
2019-05-01T21:35:44.358Z,81.76
2019-05-01T21:38:12.765Z,82.28
2019-05-01T21:40:43.526Z,82.49
2019-05-01T21:43:13.422Z,82.96
2019-05-01T21:45:43.319Z,83.46
2019-05-01T21:48:13.366Z,83.77
2019-05-01T21:50:43.868Z,83.83
2019-05-01T21:53:12.851Z,83.95
2019-05-01T21:55:41.714Z,83.83
2019-05-01T21:58:10.114Z,83.58
2019-05-01T22:00:40.512Z,83.77
2019-05-01T22:03:09.036Z,84.14
2019-05-01T22:05:39.675Z,83.95
2019-05-01T22:08:08.096Z,84.35
2019-05-01T22:10:36.533Z,84.52
2019-05-01T22:13:04.984Z,84.88
2019-05-01T22:15:41.973Z,85.32
2019-05-01T22:18:18.116Z,85.73
2019-05-01T22:20:48.443Z,86.15
2019-05-01T22:23:21.983Z,85.85
2019-05-01T22:25:53.233Z,85.54
2019-05-01T22:28:23.265Z,85.56
2019-05-01T22:30:56.027Z,85.26
2019-05-01T22:33:24.482Z,85.09
2019-05-01T22:35:53.715Z,84.63
2019-05-01T22:38:22.152Z,84.77
2019-05-01T22:41:05.517Z,84.82
2019-05-01T22:43:26.059Z,84.69
2019-05-01T22:45:56.193Z,84.63
2019-05-01T22:48:24.857Z,85.23
2019-05-01T22:50:54.989Z,85.06
2019-05-01T22:53:23.421Z,85.10
2019-05-01T22:55:51.852Z,85.48
2019-05-01T22:58:20.281Z,85.27
2019-05-01T23:00:51.139Z,85.30
2019-05-01T23:03:24.144Z,85.74
2019-05-01T23:05:52.612Z,85.80
2019-05-01T23:08:21.087Z,85.95
2019-05-01T23:10:49.696Z,85.87
2019-05-01T23:13:18.091Z,85.92
2019-05-01T23:15:46.569Z,86.16
2019-05-01T23:18:15.752Z,86.12
2019-05-01T23:20:45.182Z,86.07
2019-05-01T23:23:13.576Z,86.00
2019-05-01T23:25:42.401Z,86.17
2019-05-01T23:28:10.792Z,86.33
2019-05-01T23:30:39.372Z,86.75
2019-05-01T23:33:07.772Z,86.89
2019-05-01T23:35:36.225Z,86.44
2019-05-01T23:38:04.754Z,86.41
2019-05-01T23:40:33.226Z,86.74
2019-05-01T23:43:01.636Z,86.98
2019-05-01T23:45:30.099Z,87.36
2019-05-01T23:47:58.505Z,87.53
2019-05-01T23:50:27.109Z,87.49
2019-05-01T23:52:55.491Z,87.63
2019-05-01T23:55:23.976Z,88.22
2019-05-01T23:57:52.426Z,87.76
